createdAt,value
2022-10-14T00:01:18.282Z,18.22
2022-10-14T00:03:46.591Z,18.08
2022-10-14T00:06:16.597Z,18.32
2022-10-14T00:08:47.415Z,18.65
2022-10-14T00:11:19.006Z,18.74
2022-10-14T00:13:47.794Z,18.63
2022-10-14T00:16:17.978Z,18.97
2022-10-14T00:18:46.281Z,18.81
2022-10-14T00:21:14.689Z,18.82
2022-10-14T00:23:43.011Z,18.74
2022-10-14T00:26:18.383Z,18.70
2022-10-14T00:28:53.941Z,18.59
2022-10-14T00:31:22.265Z,18.67
2022-10-14T00:33:50.652Z,18.95
2022-10-14T00:36:20.391Z,18.97
2022-10-14T00:38:49.353Z,19.00
2022-10-14T00:41:21.191Z,18.64
2022-10-14T00:43:58.504Z,19.01
2022-10-14T00:46:28.034Z,19.44
2022-10-14T00:48:58.245Z,19.43
2022-10-14T00:54:19.943Z,19.86
2022-10-14T00:56:49.782Z,20.05
2022-10-14T00:59:18.244Z,19.58
2022-10-14T01:01:46.544Z,19.73
2022-10-14T01:04:14.920Z,19.61
2022-10-14T01:06:48.981Z,19.63
2022-10-14T01:09:24.269Z,19.63
2022-10-14T01:12:26.828Z,20.24
2022-10-14T01:14:59.117Z,19.98
2022-10-14T01:17:34.581Z,19.70
2022-10-14T01:20:26.115Z,20.17
2022-10-14T01:23:02.928Z,20.29
2022-10-14T01:25:35.864Z,19.96
2022-10-14T01:28:20.189Z,20.10
2022-10-14T01:30:51.241Z,20.35
2022-10-14T01:33:23.744Z,20.06
2022-10-14T01:35:58.862Z,20.49
2022-10-14T01:38:31.392Z,20.37
2022-10-14T01:41:04.223Z,19.96
2022-10-14T01:43:33.541Z,20.29
2022-10-14T01:46:06.158Z,20.27
2022-10-14T01:48:36.996Z,20.36
2022-10-14T01:51:08.761Z,20.29
2022-10-14T01:56:26.870Z,19.93
2022-10-14T01:58:55.928Z,20.12
2022-10-14T02:01:26.018Z,20.23
2022-10-14T02:03:54.271Z,20.44
2022-10-14T02:06:27.194Z,20.01
2022-10-14T02:09:05.076Z,20.05
2022-10-14T02:11:35.882Z,19.47
2022-10-14T02:14:13.700Z,20.02
2022-10-14T02:16:49.109Z,19.87
2022-10-14T02:19:26.088Z,19.99
2022-10-14T02:21:58.709Z,20.28
2022-10-14T02:24:31.266Z,19.76
2022-10-14T02:27:02.830Z,19.68
2022-10-14T02:29:31.839Z,19.83
2022-10-14T02:32:03.377Z,19.81
2022-10-14T02:34:32.923Z,20.08
2022-10-14T02:37:02.192Z,20.05
2022-10-14T02:39:32.134Z,19.69
2022-10-14T02:42:00.354Z,20.23
2022-10-14T02:44:28.628Z,19.71
2022-10-14T02:46:57.244Z,19.44
2022-10-14T02:49:26.922Z,19.05
2022-10-14T02:51:55.157Z,18.67
2022-10-14T02:54:23.424Z,18.85
2022-10-14T02:56:51.679Z,18.69
2022-10-14T02:59:19.916Z,19.30
2022-10-14T03:01:48.238Z,18.85
2022-10-14T03:04:16.481Z,19.13
2022-10-14T03:06:46.092Z,19.20
2022-10-14T03:09:14.279Z,18.97
2022-10-14T03:11:42.485Z,19.04
2022-10-14T03:14:10.779Z,19.13
2022-10-14T03:16:39.044Z,18.98
2022-10-14T03:19:07.298Z,19.56
2022-10-14T03:21:35.563Z,19.01
2022-10-14T03:24:05.805Z,19.08
2022-10-14T03:26:34.111Z,19.38
2022-10-14T03:29:02.494Z,19.05
2022-10-14T03:31:30.688Z,19.58
2022-10-14T03:33:58.933Z,20.01
2022-10-14T03:36:27.297Z,19.42
2022-10-14T03:38:55.540Z,19.38
2022-10-14T03:41:25.219Z,19.92
2022-10-14T03:43:53.643Z,20.12
2022-10-14T03:46:21.925Z,20.18
2022-10-14T03:48:50.163Z,19.38
2022-10-14T03:51:18.443Z,19.70
2022-10-14T03:53:46.623Z,19.66
2022-10-14T03:56:14.904Z,19.63
2022-10-14T03:58:44.535Z,19.86
2022-10-14T04:01:12.827Z,19.54
2022-10-14T04:03:41.943Z,19.81
2022-10-14T04:06:10.364Z,19.97
2022-10-14T04:08:38.637Z,19.90
2022-10-14T04:11:06.914Z,20.29
2022-10-14T04:13:36.555Z,20.27
2022-10-14T04:16:07.275Z,20.31
2022-10-14T04:18:35.871Z,20.12
2022-10-14T04:21:06.076Z,19.51
2022-10-14T04:23:34.465Z,19.53
2022-10-14T04:26:05.009Z,19.62
2022-10-14T04:28:33.193Z,19.54
2022-10-14T04:31:01.541Z,19.44
2022-10-14T04:33:31.565Z,20.00
2022-10-14T04:36:00.081Z,19.71
2022-10-14T04:38:28.438Z,19.83
2022-10-14T04:40:57.256Z,20.00
2022-10-14T04:43:25.753Z,19.65
2022-10-14T04:45:54.439Z,19.17
2022-10-14T04:48:22.811Z,19.20
2022-10-14T04:50:53.468Z,19.68
2022-10-14T04:53:22.630Z,19.93
2022-10-14T04:55:51.746Z,19.96
2022-10-14T04:58:20.114Z,19.70
2022-10-14T05:00:48.310Z,20.19
2022-10-14T05:03:16.546Z,20.29
2022-10-14T05:05:44.785Z,20.31
2022-10-14T05:08:14.349Z,20.41
2022-10-14T05:10:42.677Z,20.53
2022-10-14T05:13:11.130Z,20.56
2022-10-14T05:15:39.511Z,20.17
2022-10-14T05:18:07.765Z,20.23
2022-10-14T05:20:37.990Z,20.52
2022-10-14T05:23:06.380Z,20.32
2022-10-14T05:25:35.995Z,20.28
2022-10-14T05:28:04.372Z,20.33
2022-10-14T05:30:34.922Z,20.18
2022-10-14T05:33:03.285Z,19.93
2022-10-14T05:35:53.980Z,19.55
2022-10-14T05:38:19.786Z,18.94
2022-10-14T05:40:54.600Z,18.66
2022-10-14T05:43:29.344Z,18.85
2022-10-14T05:46:00.820Z,18.67
2022-10-14T05:48:29.116Z,19.14
2022-10-14T05:51:01.379Z,19.10
2022-10-14T05:53:29.917Z,18.69
2022-10-14T05:56:04.078Z,18.65
2022-10-14T05:58:32.745Z,18.64
2022-10-14T06:01:01.378Z,18.83
2022-10-14T06:03:29.977Z,18.63
2022-10-14T06:05:58.435Z,18.74
2022-10-14T06:08:27.277Z,19.03
2022-10-14T06:10:55.890Z,19.11
2022-10-14T06:13:25.488Z,19.17
2022-10-14T06:15:53.709Z,19.55
2022-10-14T06:18:22.217Z,19.50
2022-10-14T06:20:54.027Z,19.51
2022-10-14T06:23:22.445Z,18.92
2022-10-14T06:25:50.750Z,19.25
2022-10-14T06:28:19.271Z,19.13
2022-10-14T06:30:51.738Z,19.69
2022-10-14T06:33:20.121Z,20.38
2022-10-14T06:35:48.656Z,20.58
2022-10-14T06:38:17.481Z,20.84
2022-10-14T06:40:45.745Z,20.96
2022-10-14T06:43:13.962Z,21.17
2022-10-14T06:45:42.209Z,21.38
2022-10-14T06:48:11.807Z,21.25
2022-10-14T06:50:40.087Z,20.48
2022-10-14T06:53:08.709Z,21.42
2022-10-14T06:55:37.250Z,20.93
2022-10-14T06:58:05.565Z,20.90
2022-10-14T07:00:33.785Z,21.28
2022-10-14T07:03:01.977Z,21.24
2022-10-14T07:05:31.655Z,21.63
2022-10-14T07:10:29.510Z,21.83
2022-10-14T07:12:57.760Z,21.71
2022-10-14T07:15:25.934Z,21.54
2022-10-14T07:17:54.210Z,21.66
2022-10-14T07:20:22.423Z,21.80
2022-10-14T07:22:56.320Z,22.48
2022-10-14T07:25:24.545Z,22.12
2022-10-14T07:27:54.025Z,21.70
2022-10-14T07:30:22.597Z,21.63
2022-10-14T07:32:50.892Z,22.19
2022-10-14T07:35:20.032Z,22.43
2022-10-14T07:37:48.309Z,22.07
2022-10-14T07:40:18.068Z,22.93
2022-10-14T07:42:46.843Z,22.73
2022-10-14T07:45:18.194Z,22.75
2022-10-14T07:47:49.055Z,23.26
2022-10-14T07:50:17.416Z,23.11
2022-10-14T07:52:45.775Z,23.42
2022-10-14T07:55:13.970Z,23.47
2022-10-14T07:57:43.742Z,22.16
2022-10-14T08:00:12.753Z,22.89
2022-10-14T08:02:40.985Z,22.73
2022-10-14T08:05:32.868Z,23.24
2022-10-14T08:07:57.395Z,23.72
2022-10-14T08:10:25.697Z,23.58
2022-10-14T08:12:57.777Z,23.73
2022-10-14T08:15:28.514Z,23.19
2022-10-14T08:17:56.908Z,23.16
2022-10-14T08:20:25.128Z,23.91
2022-10-14T08:22:53.413Z,24.47
2022-10-14T08:25:21.632Z,24.13
2022-10-14T08:27:51.102Z,23.74
2022-10-14T08:30:21.199Z,23.87
2022-10-14T08:32:49.742Z,24.39
2022-10-14T08:35:18.132Z,24.23
2022-10-14T08:37:46.363Z,23.61
2022-10-14T08:40:17.236Z,24.41
2022-10-14T08:42:52.126Z,24.16
2022-10-14T08:45:31.242Z,23.30
2022-10-14T08:48:00.150Z,24.16
2022-10-14T08:50:32.171Z,23.84
2022-10-14T08:53:04.603Z,22.96
2022-10-14T08:55:36.667Z,22.31
2022-10-14T08:58:11.400Z,23.36
2022-10-14T09:00:43.144Z,23.94
2022-10-14T09:03:21.089Z,23.73
2022-10-14T09:05:54.926Z,24.17
2022-10-14T09:08:28.311Z,24.86
2022-10-14T09:10:56.569Z,24.64
2022-10-14T09:13:29.941Z,23.51
2022-10-14T09:16:02.195Z,24.98
2022-10-14T09:18:35.095Z,24.61
2022-10-14T09:21:04.541Z,24.48
2022-10-14T09:23:32.977Z,23.54
2022-10-14T09:26:06.773Z,23.25
2022-10-14T09:28:38.263Z,24.58
2022-10-14T09:31:10.281Z,23.63
2022-10-14T09:33:42.196Z,24.35
2022-10-14T09:36:15.679Z,24.97
2022-10-14T09:38:43.944Z,24.37
2022-10-14T09:41:13.867Z,23.98
2022-10-14T09:44:18.345Z,25.09
2022-10-14T09:46:53.108Z,24.43
2022-10-14T09:49:24.473Z,24.63
2022-10-14T09:51:53.067Z,24.60
2022-10-14T09:54:25.164Z,24.64
2022-10-14T09:57:00.990Z,25.24
2022-10-14T09:59:29.950Z,25.15
2022-10-14T10:02:01.887Z,25.19
2022-10-14T10:04:36.036Z,26.24
2022-10-14T10:07:06.879Z,25.09
2022-10-14T10:09:35.570Z,25.26
2022-10-14T10:12:23.948Z,25.40
2022-10-14T10:14:58.200Z,25.05
2022-10-14T10:17:28.740Z,24.73
2022-10-14T10:20:10.768Z,25.14
2022-10-14T10:22:39.355Z,24.92
2022-10-14T10:25:31.375Z,25.44
2022-10-14T10:28:00.549Z,25.34
2022-10-14T10:30:30.282Z,26.95
2022-10-14T10:33:13.674Z,27.08
2022-10-14T10:35:56.254Z,26.59
2022-10-14T10:38:26.983Z,27.60
2022-10-14T10:41:05.815Z,27.82
2022-10-14T10:43:44.771Z,26.49
2022-10-14T10:46:33.552Z,26.39
2022-10-14T10:49:10.637Z,27.40
2022-10-14T10:51:41.965Z,26.95
2022-10-14T10:54:24.482Z,26.95
2022-10-14T10:56:55.172Z,26.48
2022-10-14T10:59:40.851Z,25.93
2022-10-14T11:02:50.486Z,26.36
2022-10-14T11:05:28.006Z,26.51
2022-10-14T11:08:12.983Z,27.88
2022-10-14T11:11:06.061Z,27.56
2022-10-14T11:13:40.096Z,26.79
2022-10-14T11:16:12.568Z,27.27
2022-10-14T11:18:47.559Z,27.65
2022-10-14T11:21:22.845Z,27.73
2022-10-14T11:23:59.924Z,27.49
2022-10-14T11:26:41.422Z,27.55
2022-10-14T11:29:20.437Z,27.06
2022-10-14T11:31:56.290Z,27.12
2022-10-14T11:34:34.788Z,27.10
2022-10-14T11:37:10.399Z,27.40
2022-10-14T11:39:41.523Z,26.67
2022-10-14T11:42:20.928Z,26.48
2022-10-14T11:44:49.988Z,24.90
2022-10-14T11:47:22.710Z,26.48
2022-10-14T11:49:55.788Z,26.34
2022-10-14T11:52:28.803Z,26.86
2022-10-14T11:54:59.105Z,27.03
2022-10-14T11:57:31.797Z,27.14
2022-10-14T12:00:37.193Z,26.58
2022-10-14T12:03:10.362Z,26.77
2022-10-14T12:05:42.386Z,26.97
2022-10-14T12:08:24.549Z,27.77
2022-10-14T12:10:56.507Z,27.61
2022-10-14T12:13:31.955Z,27.98
2022-10-14T12:16:02.075Z,27.59
2022-10-14T12:18:30.992Z,27.73
2022-10-14T12:21:04.972Z,26.71
2022-10-14T12:23:38.161Z,28.02
2022-10-14T12:26:12.582Z,28.31
2022-10-14T12:28:41.335Z,28.48
2022-10-14T12:31:23.890Z,26.75
2022-10-14T12:34:19.247Z,26.22
2022-10-14T12:36:50.693Z,26.92
2022-10-14T12:39:35.919Z,28.23
2022-10-14T12:42:06.906Z,28.41
2022-10-14T12:44:42.321Z,27.67
2022-10-14T12:47:18.549Z,27.86
2022-10-14T12:49:49.528Z,28.53
2022-10-14T12:52:22.623Z,26.87
2022-10-14T12:57:28.757Z,27.38
2022-10-14T12:59:59.642Z,28.06
2022-10-14T13:02:34.490Z,28.26
2022-10-14T13:05:04.666Z,28.69
2022-10-14T13:07:46.393Z,26.37
2022-10-14T13:10:47.038Z,27.06
2022-10-14T13:13:52.318Z,26.64
2022-10-14T13:16:55.599Z,25.88
2022-10-14T13:19:47.234Z,25.66
2022-10-14T13:22:41.073Z,26.48
2022-10-14T13:25:17.685Z,27.39
2022-10-14T13:28:11.470Z,27.06
2022-10-14T13:30:48.371Z,27.67
2022-10-14T13:33:21.377Z,28.06
2022-10-14T13:35:56.032Z,28.32
2022-10-14T13:38:25.086Z,28.02
2022-10-14T13:40:54.852Z,28.42
2022-10-14T13:43:28.945Z,28.01
2022-10-14T13:46:00.398Z,28.04
2022-10-14T13:48:32.261Z,28.27
2022-10-14T13:51:24.607Z,28.49
2022-10-14T13:54:09.647Z,28.14
2022-10-14T13:56:37.913Z,27.85
2022-10-14T13:59:39.343Z,28.07
2022-10-14T14:02:15.485Z,28.21
2022-10-14T14:04:48.279Z,27.73
2022-10-14T14:08:14.564Z,28.14
2022-10-14T14:10:19.252Z,27.93
2022-10-14T14:12:48.198Z,27.95
2022-10-14T14:15:22.688Z,27.90
2022-10-14T14:17:51.728Z,27.85
2022-10-14T14:20:21.842Z,27.87
2022-10-14T14:22:50.606Z,27.56
2022-10-14T14:25:33.878Z,26.99
2022-10-14T14:28:05.611Z,26.05
2022-10-14T14:30:37.404Z,25.77
2022-10-14T14:33:08.439Z,24.90
2022-10-14T14:35:36.665Z,25.33
2022-10-14T14:38:04.966Z,24.24
2022-10-14T14:40:33.257Z,24.14
2022-10-14T14:43:02.764Z,23.33
2022-10-14T14:45:32.664Z,22.53
2022-10-14T14:48:06.480Z,22.30
2022-10-14T14:50:37.055Z,22.42
2022-10-14T14:53:08.378Z,22.28
2022-10-14T14:55:43.471Z,22.77
2022-10-14T14:58:25.552Z,21.59
2022-10-14T15:00:54.937Z,21.04
2022-10-14T15:03:27.108Z,21.87
2022-10-14T15:05:59.090Z,21.95
2022-10-14T15:08:29.168Z,21.54
2022-10-14T15:10:59.353Z,21.25
2022-10-14T15:13:30.961Z,21.87
2022-10-14T15:15:59.650Z,21.93
2022-10-14T15:18:30.495Z,21.89
2022-10-14T15:21:06.901Z,21.74
2022-10-14T15:23:40.215Z,22.59
2022-10-14T15:26:22.756Z,21.90
2022-10-14T15:29:05.142Z,22.42
2022-10-14T15:31:33.820Z,22.29
2022-10-14T15:34:03.858Z,22.77
2022-10-14T15:36:33.240Z,22.07
2022-10-14T15:39:02.487Z,22.63
2022-10-14T15:41:30.813Z,23.22
2022-10-14T15:43:59.051Z,23.46
2022-10-14T15:46:44.881Z,23.64
2022-10-14T15:49:16.809Z,23.73
2022-10-14T15:51:45.093Z,23.60
2022-10-14T15:54:13.581Z,23.71
2022-10-14T15:56:41.828Z,23.25
2022-10-14T15:59:10.114Z,23.62
2022-10-14T16:01:39.898Z,23.68
2022-10-14T16:04:16.900Z,23.72
2022-10-14T16:06:45.119Z,23.79
2022-10-14T16:09:13.491Z,23.67
2022-10-14T16:11:41.818Z,23.61
2022-10-14T16:14:12.619Z,22.95
2022-10-14T16:16:43.272Z,23.52
2022-10-14T16:19:11.734Z,23.74
2022-10-14T16:21:41.431Z,23.71
2022-10-14T16:24:16.337Z,23.68
2022-10-14T16:26:44.537Z,23.44
2022-10-14T16:29:12.778Z,23.40
2022-10-14T16:31:41.103Z,23.12
2022-10-14T16:34:10.981Z,22.99
2022-10-14T16:36:41.140Z,22.85
2022-10-14T16:39:10.670Z,23.16
2022-10-14T16:41:39.022Z,23.11
2022-10-14T16:44:07.694Z,23.18
2022-10-14T16:47:01.947Z,22.84
2022-10-14T16:49:30.288Z,23.05
2022-10-14T16:51:59.886Z,22.95
2022-10-14T16:54:28.404Z,22.60
2022-10-14T16:56:56.935Z,22.95
2022-10-14T16:59:26.018Z,22.57
2022-10-14T17:01:54.293Z,23.13
2022-10-14T17:04:23.176Z,22.74
2022-10-14T17:06:51.779Z,23.14
2022-10-14T17:09:21.706Z,23.13
2022-10-14T17:11:50.756Z,23.19
2022-10-14T17:14:21.824Z,22.79
2022-10-14T17:16:52.244Z,22.50
2022-10-14T17:19:20.781Z,22.25
2022-10-14T17:21:49.215Z,22.54
2022-10-14T17:24:17.551Z,22.75
2022-10-14T17:26:47.147Z,22.66
2022-10-14T17:29:15.463Z,22.36
2022-10-14T17:31:43.735Z,22.44
2022-10-14T17:34:12.022Z,22.93
2022-10-14T17:36:41.648Z,22.87
2022-10-14T17:39:16.414Z,22.98
2022-10-14T17:41:51.318Z,23.15
2022-10-14T17:44:19.957Z,22.86
2022-10-14T17:46:48.233Z,22.73
2022-10-14T17:49:16.510Z,22.31
2022-10-14T17:51:44.897Z,22.51
2022-10-14T17:54:13.383Z,22.81
2022-10-14T17:56:43.020Z,23.05
2022-10-14T17:59:14.154Z,23.05
2022-10-14T18:02:02.702Z,22.73
2022-10-14T18:04:32.291Z,22.45
2022-10-14T18:07:02.912Z,23.05
2022-10-14T18:09:31.126Z,23.11
2022-10-14T18:12:14.752Z,22.65
2022-10-14T18:14:44.404Z,22.98
2022-10-14T18:17:13.209Z,22.41
2022-10-14T18:19:41.905Z,22.10
2022-10-14T18:22:11.567Z,22.69
2022-10-14T18:24:39.972Z,22.05
2022-10-14T18:27:08.254Z,22.39
2022-10-14T18:29:36.613Z,22.38
2022-10-14T18:32:06.557Z,21.94
2022-10-14T18:34:34.818Z,21.99
2022-10-14T18:37:03.029Z,21.84
2022-10-14T18:39:31.292Z,22.22
2022-10-14T18:41:59.505Z,22.45
2022-10-14T18:44:27.787Z,22.35
2022-10-14T18:46:56.834Z,22.43
2022-10-14T18:49:26.530Z,22.60
2022-10-14T18:51:55.335Z,21.99
2022-10-14T18:54:24.891Z,22.17
2022-10-14T18:56:54.821Z,22.32
2022-10-14T18:59:24.201Z,22.22
2022-10-14T19:01:53.322Z,22.57
2022-10-14T19:04:24.319Z,21.86
2022-10-14T19:06:53.821Z,22.62
2022-10-14T19:09:28.729Z,22.47
2022-10-14T19:11:59.001Z,22.02
2022-10-14T19:14:28.614Z,21.97
2022-10-14T19:16:56.979Z,21.89
2022-10-14T19:19:25.519Z,21.92
2022-10-14T19:21:56.252Z,21.25
2022-10-14T19:24:24.505Z,21.48
2022-10-14T19:26:54.166Z,21.77
2022-10-14T19:29:22.551Z,21.93
2022-10-14T19:31:51.138Z,21.85
2022-10-14T19:34:19.342Z,21.75
2022-10-14T19:36:47.884Z,21.83
2022-10-14T19:39:18.951Z,21.13
2022-10-14T19:41:47.506Z,21.70
2022-10-14T19:44:16.797Z,22.01
2022-10-14T19:46:45.331Z,21.43
2022-10-14T19:49:14.873Z,21.57
2022-10-14T19:51:43.508Z,21.26
2022-10-14T19:54:12.936Z,21.78
2022-10-14T19:56:42.551Z,21.89
2022-10-14T19:59:13.481Z,21.99
2022-10-14T20:01:42.733Z,21.87
2022-10-14T20:04:10.980Z,22.37
2022-10-14T20:06:40.170Z,22.35
2022-10-14T20:09:09.056Z,22.53
2022-10-14T20:11:37.266Z,22.05
2022-10-14T20:14:06.918Z,22.61
2022-10-14T20:16:35.552Z,22.48
2022-10-14T20:19:03.885Z,22.55
2022-10-14T20:21:32.093Z,22.75
2022-10-14T20:24:00.595Z,22.67
2022-10-14T20:26:28.937Z,22.78
2022-10-14T20:28:57.399Z,22.79
2022-10-14T20:31:27.115Z,22.50
2022-10-14T20:33:56.748Z,22.71
2022-10-14T20:36:25.116Z,22.75
2022-10-14T20:38:53.361Z,22.78
2022-10-14T20:41:22.835Z,22.95
2022-10-14T20:43:52.206Z,22.83
2022-10-14T20:46:21.834Z,22.39
2022-10-14T20:48:54.397Z,22.90
2022-10-14T20:51:22.744Z,22.83
2022-10-14T20:53:52.777Z,22.50
2022-10-14T20:56:21.799Z,22.85
2022-10-14T20:58:55.008Z,22.84
2022-10-14T21:01:23.321Z,22.67
2022-10-14T21:03:53.508Z,21.98
2022-10-14T21:06:24.114Z,22.20
2022-10-14T21:08:52.699Z,22.46
2022-10-14T21:11:22.890Z,22.54
2022-10-14T21:13:54.232Z,21.93
2022-10-14T21:16:24.612Z,22.60
2022-10-14T21:18:57.905Z,22.49
2022-10-14T21:21:28.495Z,22.13
2022-10-14T21:23:57.253Z,22.27
2022-10-14T21:26:25.594Z,22.48
2022-10-14T21:28:54.051Z,22.64
2022-10-14T21:31:22.995Z,22.06
2022-10-14T21:33:59.854Z,22.20
2022-10-14T21:36:30.925Z,22.88
2022-10-14T21:39:01.192Z,22.31
2022-10-14T21:41:29.547Z,21.64
2022-10-14T21:43:59.266Z,21.72
2022-10-14T21:46:28.181Z,21.91
2022-10-14T21:48:58.750Z,21.94
2022-10-14T21:51:27.334Z,22.32
2022-10-14T21:53:55.487Z,21.88
2022-10-14T21:56:25.779Z,22.56
2022-10-14T21:58:54.381Z,22.47
2022-10-14T22:01:24.417Z,22.58
2022-10-14T22:03:54.974Z,22.78
2022-10-14T22:06:24.376Z,22.63
2022-10-14T22:08:54.306Z,22.24
2022-10-14T22:11:24.860Z,21.56
2022-10-14T22:13:53.247Z,21.87
2022-10-14T22:16:22.108Z,21.78
2022-10-14T22:18:52.289Z,22.26
2022-10-14T22:21:22.248Z,22.27
2022-10-14T22:23:52.310Z,22.38
2022-10-14T22:26:21.960Z,22.51
2022-10-14T22:28:50.576Z,22.45
2022-10-14T22:31:20.951Z,22.51
2022-10-14T22:33:49.861Z,22.50
2022-10-14T22:36:22.832Z,22.09
2022-10-14T22:38:54.155Z,22.38
2022-10-14T22:41:23.538Z,21.89
2022-10-14T22:43:54.002Z,21.94
2022-10-14T22:46:22.684Z,22.26
2022-10-14T22:48:56.007Z,21.43
2022-10-14T22:53:56.948Z,22.25
2022-10-14T22:56:26.614Z,21.74
2022-10-14T22:58:55.181Z,22.09
2022-10-14T23:01:24.044Z,22.27
2022-10-14T23:03:52.264Z,21.20
2022-10-14T23:06:21.154Z,22.03
2022-10-14T23:08:49.910Z,21.50
2022-10-14T23:11:22.053Z,21.55
2022-10-14T23:13:50.279Z,21.85
2022-10-14T23:16:20.756Z,21.93
2022-10-14T23:18:49.247Z,22.22
2022-10-14T23:21:20.217Z,22.17
2022-10-14T23:23:49.727Z,22.11
2022-10-14T23:26:21.345Z,21.79
2022-10-14T23:28:50.240Z,21.81
2022-10-14T23:31:20.499Z,21.46
2022-10-14T23:33:49.025Z,21.43
2022-10-14T23:36:17.498Z,21.27
2022-10-14T23:38:46.458Z,21.03
2022-10-14T23:41:15.086Z,21.19
2022-10-14T23:43:44.721Z,21.47
2022-10-14T23:46:12.921Z,21.08
2022-10-14T23:48:41.532Z,20.74
2022-10-14T23:51:09.903Z,20.75
2022-10-14T23:53:38.123Z,20.97
2022-10-14T23:56:06.768Z,20.60
2022-10-14T23:58:35.111Z,21.07
